Harbinger, NC

4:37 AM EDT on October 24, 2014 (GMT -0400)
Dare County Regional | Change Station
CLOSE
Current Station
Airport
Location: Manteo,
Elevation: 13 ft
Nearby Weather Stations

Elev 13 ft 35.92 °N, 75.70 °W | Updated 22 minutes ago

Clear
Clear
57 °F
Feels Like 57 °F
N
9
Wind Variable Wind from NW

Today
High -- | Low -- °F
--% Chance of Precip.
Yesterday
High -- | Low -- °F
Precip. -- in
7:18 AM 6:16 PM
New Moon, 0% visible
Pressure 29.92 in
Visibility 10.0 miles
Clouds Clear
Dew Point 47 °F
Humidity 70%
Rainfall 0.00 in
Snow Depth Not available.
UV 0 out of 12
Pollen 1.40 out of 12
Air Quality Not available.
Flu Activity Sporadic
METAR KMQI 240815Z AUTO 32008KT 290V350 10SM CLR 14/08 A2992 RMK AO2 T01370084

More Conditions Fewer Conditions

Pressure 29.92 in
Visibility 10.0 miles
Clouds Clear
Dew Point 47 °F
Humidity 70%
Rainfall 0.00 in
Snow Depth Not available.
UV 0 out of 12
Pollen 1.40 out of 12
Air Quality Not available.
Flu Activity Sporadic
METAR KMQI 240815Z AUTO 32008KT 290V350 10SM CLR 14/08 A2992 RMK AO2 T01370084

More Conditions Fewer Conditions

10-Day Weather Forecast

Almanac

Astronomy

Oct. 24, 2014 Rise Set
Actual Time 7:18 AM EDT 6:16 PM EDT
Civil Twilight 6:52 AM EDT 6:42 PM EDT
Nautical Twilight 6:22 AM EDT 7:12 PM EDT
Astronomical Twilight 5:52 AM EDT 7:42 PM EDT
Moon 7:54 AM EDT 6:56 PM EDT
Length of Visible Light 11h 50m
Length of Day
10h 57m
Tomorrow will be 2m 6s shorter.
New Moon, 0% of the Moon is Illuminated
Today
New Moon
Oct 30
First Quarter
Nov 6
Full
Nov 14
Last Quarter
Nov 22
New

Today's Extremes

State Highs State Lows

Community

WunderPhotos

Upload Photos

1,764,511 photos uploaded!

WunderBlogs® & News

Nearby

Snow Depth

Station Depth Elevation
No new snow has been reported.

Earthquake Activity

City Distance Mag. Time & Date
No recent earthquake activity has been reported nearby.
Minimum magnitude displayed is 2.5.

Coastal Water Temperatures

Place Temperature
Oregon Inlet Marina, NC 64.0 °F
Duck Pier, NC 66.0 °F
Hatteras, NC 64.0 °F
Money Point, VA 64.9 °F
Chesapeake Bay Bridge Tunnel, VA 64.9 °F

Nearby Weather Stations